Aviation Digital Data Service (ADDS)

Output produced by TAFs form (0551 UTC 25 February 2018)
found at http://aviationweather.gov/adds/tafs/
 
METAR text: ZMUB 250530Z VRB01MPS 8000NW BKN250 M08/M15 Q1009 NOSIG RMK QFE650.2 53 NW MO
Conditions at: ZMUB (ULAN-BATOR , MG) observed 0530 UTC 25 February 2018
Temperature: -8.0°C (18°F)
Dewpoint: -15.0°C (5°F) [RH = 57%]
Pressure (altimeter): 29.79 inches Hg (1009.0 mb)
Winds: variable direction winds at 2 MPH (2 knots; 1.0 m/s)
Visibility: 5 miles (8 km)
Ceiling: 25000 feet AGL
Clouds: broken clouds at 25000 feet AGL
Weather: no significant weather observed at this time

Forecast for: ZMUB (ULAN-BATOR , MG)
Text: TAF ZMUB 250440Z 2506/2612 VRB02MPS 9999 BKN100 TXM07/2507Z TNM25/2523Z
Forecast period: 0600 UTC 25 February 2018 to 1200 UTC 26 February 2018
Forecast type: FROM: standard forecast or significant change
Winds: variable direction winds at 5 MPH (4 knots; 2.1 m/s)
Visibility: 6 or more miles (10+ km)
Ceiling: 10000 feet AGL
Clouds: broken clouds at 10000 feet AGL
Weather: no significant weather forecast for this period
Text: TEMPO 2514/2604 6000 -SN BKN080
Forecast period: 1400 UTC 25 February 2018 to 0400 UTC 26 February 2018
Forecast type: TEMPORARY: The following changes expected for less than half the time period
Visibility: 4 miles (6 km)
Ceiling: 8000 feet AGL
Clouds: broken clouds at 8000 feet AGL
Weather: -SN  (light snow)